Terminal Aerodrome Forecast
Issued by NWS

Home | Current Version | Previous Version | Text Only | Print | Product List | Glossary On
Versions: 1 2 3 4 5 6 7 8 9 10 11 12
000
FTAK31 PAJN 042300
TAFAJN
TAF
PAJN 042320Z 0500/0524 12015KT 6SM -RA SCT020 BKN035 OVC050
     FM050600 10008KT 5SM -RA BR BKN025 OVC040
     FM051200 07005KT P6SM -RA OVC025
     FM051800 VRB03KT 5SM -RA BKN015 OVC025=

USA.gov is the U.S. government's official web portal to all federal, state and local government web resources and services.